sensor_id;sensor_type;location;lat;lon;timestamp;temperature;humidity
44487;DHT22;30191;50.908;6.962;2022-10-22T00:01:10;15.80;99.90
44487;DHT22;30191;50.908;6.962;2022-10-22T00:03:35;15.90;99.90
44487;DHT22;30191;50.908;6.962;2022-10-22T00:06:01;15.80;99.90
44487;DHT22;30191;50.908;6.962;2022-10-22T00:08:27;15.80;99.90
44487;DHT22;30191;50.908;6.962;2022-10-22T00:10:52;15.80;99.90
44487;DHT22;30191;50.908;6.962;2022-10-22T00:13:18;15.90;99.90
44487;DHT22;30191;50.908;6.962;2022-10-22T00:15:44;15.80;99.90
44487;DHT22;30191;50.908;6.962;2022-10-22T00:18:10;15.80;99.90
44487;DHT22;30191;50.908;6.962;2022-10-22T00:20:36;15.90;99.90
44487;DHT22;30191;50.908;6.962;2022-10-22T00:23:01;15.90;99.90
44487;DHT22;30191;50.908;6.962;2022-10-22T00:25:27;15.90;99.90
44487;DHT22;30191;50.908;6.962;2022-10-22T00:27:53;15.90;99.90
44487;DHT22;30191;50.908;6.962;2022-10-22T00:30:18;15.90;99.90
44487;DHT22;30191;50.908;6.962;2022-10-22T00:32:44;15.90;99.90
44487;DHT22;30191;50.908;6.962;2022-10-22T00:35:10;15.90;99.90
44487;DHT22;30191;50.908;6.962;2022-10-22T00:37:36;15.90;99.90
44487;DHT22;30191;50.908;6.962;2022-10-22T00:40:02;15.90;99.90
44487;DHT22;30191;50.908;6.962;2022-10-22T00:42:28;15.90;99.90
44487;DHT22;30191;50.908;6.962;2022-10-22T00:50:38;15.90;99.90
44487;DHT22;30191;50.908;6.962;2022-10-22T00:53:07;15.90;99.90
44487;DHT22;30191;50.908;6.962;2022-10-22T00:55:34;15.90;99.90
44487;DHT22;30191;50.908;6.962;2022-10-22T00:58:01;15.90;99.90
44487;DHT22;30191;50.908;6.962;2022-10-22T01:00:27;15.90;99.90
44487;DHT22;30191;50.908;6.962;2022-10-22T01:02:53;15.90;99.90
44487;DHT22;30191;50.908;6.962;2022-10-22T01:05:19;15.80;99.90
44487;DHT22;30191;50.908;6.962;2022-10-22T01:07:50;15.80;99.90
44487;DHT22;30191;50.908;6.962;2022-10-22T01:10:23;15.80;99.90
44487;DHT22;30191;50.908;6.962;2022-10-22T01:13:05;15.80;99.90
44487;DHT22;30191;50.908;6.962;2022-10-22T01:15:46;15.80;99.90
44487;DHT22;30191;50.908;6.962;2022-10-22T01:18:23;15.90;99.90
44487;DHT22;30191;50.908;6.962;2022-10-22T01:23:49;15.80;99.90
44487;DHT22;30191;50.908;6.962;2022-10-22T01:28:49;15.80;99.90
44487;DHT22;30191;50.908;6.962;2022-10-22T01:31:21;15.90;99.90
44487;DHT22;30191;50.908;6.962;2022-10-22T01:33:48;15.90;99.90
44487;DHT22;30191;50.908;6.962;2022-10-22T01:36:16;15.90;99.90
44487;DHT22;30191;50.908;6.962;2022-10-22T01:38:44;15.90;99.90
44487;DHT22;30191;50.908;6.962;2022-10-22T01:41:11;15.90;99.90
44487;DHT22;30191;50.908;6.962;2022-10-22T01:43:36;15.90;99.90
44487;DHT22;30191;50.908;6.962;2022-10-22T01:46:04;15.80;99.90
44487;DHT22;30191;50.908;6.962;2022-10-22T02:02:31;15.80;99.90
44487;DHT22;30191;50.908;6.962;2022-10-22T02:10:28;15.90;99.90
44487;DHT22;30191;50.908;6.962;2022-10-22T02:12:55;15.80;99.90
44487;DHT22;30191;50.908;6.962;2022-10-22T02:15:25;15.80;99.90
44487;DHT22;30191;50.908;6.962;2022-10-22T02:17:52;15.90;99.90
44487;DHT22;30191;50.908;6.962;2022-10-22T02:20:26;15.90;99.90
44487;DHT22;30191;50.908;6.962;2022-10-22T02:22:52;15.90;99.90
44487;DHT22;30191;50.908;6.962;2022-10-22T02:25:21;15.90;99.90
44487;DHT22;30191;50.908;6.962;2022-10-22T02:27:53;15.90;99.90
44487;DHT22;30191;50.908;6.962;2022-10-22T02:30:23;15.80;99.90
44487;DHT22;30191;50.908;6.962;2022-10-22T02:35:33;15.80;99.90
44487;DHT22;30191;50.908;6.962;2022-10-22T02:38:00;15.80;99.90
44487;DHT22;30191;50.908;6.962;2022-10-22T02:40:28;15.80;99.90
44487;DHT22;30191;50.908;6.962;2022-10-22T02:42:55;15.80;99.90
44487;DHT22;30191;50.908;6.962;2022-10-22T02:45:21;15.70;99.90
44487;DHT22;30191;50.908;6.962;2022-10-22T02:47:46;15.70;99.90
44487;DHT22;30191;50.908;6.962;2022-10-22T02:50:12;15.80;99.90
44487;DHT22;30191;50.908;6.962;2022-10-22T02:52:38;15.70;99.90
44487;DHT22;30191;50.908;6.962;2022-10-22T02:55:04;15.80;99.90
44487;DHT22;30191;50.908;6.962;2022-10-22T02:57:31;15.70;99.90
44487;DHT22;30191;50.908;6.962;2022-10-22T02:59:56;15.70;99.90
44487;DHT22;30191;50.908;6.962;2022-10-22T03:02:22;15.70;99.90
44487;DHT22;30191;50.908;6.962;2022-10-22T03:04:48;15.70;99.90
44487;DHT22;30191;50.908;6.962;2022-10-22T03:07:13;15.70;99.90
44487;DHT22;30191;50.908;6.962;2022-10-22T03:09:39;15.70;99.90
44487;DHT22;30191;50.908;6.962;2022-10-22T03:12:05;15.60;99.90
44487;DHT22;30191;50.908;6.962;2022-10-22T03:14:33;15.60;99.90
44487;DHT22;30191;50.908;6.962;2022-10-22T03:16:58;15.60;99.90
44487;DHT22;30191;50.908;6.962;2022-10-22T03:19:24;15.60;99.90
44487;DHT22;30191;50.908;6.962;2022-10-22T03:21:54;15.60;99.90
44487;DHT22;30191;50.908;6.962;2022-10-22T03:24:24;15.50;99.90
44487;DHT22;30191;50.908;6.962;2022-10-22T03:26:51;15.50;99.90
44487;DHT22;30191;50.908;6.962;2022-10-22T03:29:19;15.50;99.90
44487;DHT22;30191;50.908;6.962;2022-10-22T03:31:46;15.50;99.90
44487;DHT22;30191;50.908;6.962;2022-10-22T03:34:11;15.60;99.90
44487;DHT22;30191;50.908;6.962;2022-10-22T03:36:38;15.60;99.90
44487;DHT22;30191;50.908;6.962;2022-10-22T03:39:05;15.60;99.90
44487;DHT22;30191;50.908;6.962;2022-10-22T03:41:33;15.50;99.90
44487;DHT22;30191;50.908;6.962;2022-10-22T03:44:00;15.50;99.90
44487;DHT22;30191;50.908;6.962;2022-10-22T03:46:27;15.50;99.90
44487;DHT22;30191;50.908;6.962;2022-10-22T03:48:53;15.50;99.90
44487;DHT22;30191;50.908;6.962;2022-10-22T03:51:18;15.50;99.90
44487;DHT22;30191;50.908;6.962;2022-10-22T03:53:44;15.50;99.90
44487;DHT22;30191;50.908;6.962;2022-10-22T03:56:11;15.50;99.90
44487;DHT22;30191;50.908;6.962;2022-10-22T03:58:38;15.50;99.90
44487;DHT22;30191;50.908;6.962;2022-10-22T04:01:09;15.50;99.90
44487;DHT22;30191;50.908;6.962;2022-10-22T04:03:36;15.50;99.90
44487;DHT22;30191;50.908;6.962;2022-10-22T04:06:07;15.50;99.90
44487;DHT22;30191;50.908;6.962;2022-10-22T04:08:34;15.50;99.90
44487;DHT22;30191;50.908;6.962;2022-10-22T04:10:59;15.40;99.90
44487;DHT22;30191;50.908;6.962;2022-10-22T04:13:25;15.40;99.90
44487;DHT22;30191;50.908;6.962;2022-10-22T04:15:51;15.40;99.90
44487;DHT22;30191;50.908;6.962;2022-10-22T04:18:20;15.40;99.90
44487;DHT22;30191;50.908;6.962;2022-10-22T04:20:46;15.40;99.90
44487;DHT22;30191;50.908;6.962;2022-10-22T04:23:12;15.40;99.90
44487;DHT22;30191;50.908;6.962;2022-10-22T04:25:38;15.40;99.90
44487;DHT22;30191;50.908;6.962;2022-10-22T04:28:08;15.30;99.90
44487;DHT22;30191;50.908;6.962;2022-10-22T04:30:35;15.30;99.90
44487;DHT22;30191;50.908;6.962;2022-10-22T04:33:01;15.30;99.90
44487;DHT22;30191;50.908;6.962;2022-10-22T04:35:27;15.30;99.90
44487;DHT22;30191;50.908;6.962;2022-10-22T04:37:54;15.20;99.90
44487;DHT22;30191;50.908;6.962;2022-10-22T04:40:19;15.20;99.90
44487;DHT22;30191;50.908;6.962;2022-10-22T04:42:45;15.20;99.90
44487;DHT22;30191;50.908;6.962;2022-10-22T04:45:11;15.20;99.90
44487;DHT22;30191;50.908;6.962;2022-10-22T04:47:36;15.20;99.90
44487;DHT22;30191;50.908;6.962;2022-10-22T04:50:02;15.20;99.90
44487;DHT22;30191;50.908;6.962;2022-10-22T04:52:28;15.10;99.90
44487;DHT22;30191;50.908;6.962;2022-10-22T04:54:55;15.10;99.90
44487;DHT22;30191;50.908;6.962;2022-10-22T04:57:20;15.10;99.90
44487;DHT22;30191;50.908;6.962;2022-10-22T04:59:46;15.10;99.90
44487;DHT22;30191;50.908;6.962;2022-10-22T05:02:12;15.10;99.90
44487;DHT22;30191;50.908;6.962;2022-10-22T05:04:37;15.10;99.90
44487;DHT22;30191;50.908;6.962;2022-10-22T05:07:03;15.00;99.90
44487;DHT22;30191;50.908;6.962;2022-10-22T05:09:28;15.00;99.90
44487;DHT22;30191;50.908;6.962;2022-10-22T05:11:54;15.00;99.90
44487;DHT22;30191;50.908;6.962;2022-10-22T05:14:22;15.00;99.90
44487;DHT22;30191;50.908;6.962;2022-10-22T05:16:48;15.00;99.90
44487;DHT22;30191;50.908;6.962;2022-10-22T05:19:24;15.00;99.90
44487;DHT22;30191;50.908;6.962;2022-10-22T05:21:55;15.00;99.90
44487;DHT22;30191;50.908;6.962;2022-10-22T05:24:21;15.00;99.90
44487;DHT22;30191;50.908;6.962;2022-10-22T05:26:55;15.00;99.90
44487;DHT22;30191;50.908;6.962;2022-10-22T05:29:21;15.00;99.90
44487;DHT22;30191;50.908;6.962;2022-10-22T05:31:47;15.00;99.90
44487;DHT22;30191;50.908;6.962;2022-10-22T05:34:13;15.00;99.90
44487;DHT22;30191;50.908;6.962;2022-10-22T05:36:39;15.00;99.90
44487;DHT22;30191;50.908;6.962;2022-10-22T05:39:05;15.00;99.90
44487;DHT22;30191;50.908;6.962;2022-10-22T05:41:32;14.90;99.90
44487;DHT22;30191;50.908;6.962;2022-10-22T05:43:58;14.90;99.90
44487;DHT22;30191;50.908;6.962;2022-10-22T05:46:27;14.80;99.90
44487;DHT22;30191;50.908;6.962;2022-10-22T05:48:58;14.80;99.90
44487;DHT22;30191;50.908;6.962;2022-10-22T05:51:26;14.80;99.90
44487;DHT22;30191;50.908;6.962;2022-10-22T05:53:54;14.80;99.90
44487;DHT22;30191;50.908;6.962;2022-10-22T05:56:20;14.70;99.90
44487;DHT22;30191;50.908;6.962;2022-10-22T05:58:47;14.70;99.90
44487;DHT22;30191;50.908;6.962;2022-10-22T06:01:21;14.70;99.90
44487;DHT22;30191;50.908;6.962;2022-10-22T06:03:47;14.70;99.90
44487;DHT22;30191;50.908;6.962;2022-10-22T06:08:54;14.70;99.90
44487;DHT22;30191;50.908;6.962;2022-10-22T06:11:21;14.70;99.90
44487;DHT22;30191;50.908;6.962;2022-10-22T06:13:47;14.70;99.90
44487;DHT22;30191;50.908;6.962;2022-10-22T06:16:13;14.70;99.90
44487;DHT22;30191;50.908;6.962;2022-10-22T06:18:40;14.70;99.90
44487;DHT22;30191;50.908;6.962;2022-10-22T06:21:08;14.80;99.90
44487;DHT22;30191;50.908;6.962;2022-10-22T06:23:34;14.80;99.90
44487;DHT22;30191;50.908;6.962;2022-10-22T06:26:00;14.80;99.90
44487;DHT22;30191;50.908;6.962;2022-10-22T06:28:26;14.80;99.90
44487;DHT22;30191;50.908;6.962;2022-10-22T06:30:51;14.80;99.90
44487;DHT22;30191;50.908;6.962;2022-10-22T06:33:17;14.90;99.90
44487;DHT22;30191;50.908;6.962;2022-10-22T06:35:43;14.90;99.90
44487;DHT22;30191;50.908;6.962;2022-10-22T06:38:10;15.00;99.90
44487;DHT22;30191;50.908;6.962;2022-10-22T06:40:36;15.00;99.90
44487;DHT22;30191;50.908;6.962;2022-10-22T06:43:02;15.00;99.90
44487;DHT22;30191;50.908;6.962;2022-10-22T06:45:27;15.10;99.90
44487;DHT22;30191;50.908;6.962;2022-10-22T06:47:53;15.10;99.90
44487;DHT22;30191;50.908;6.962;2022-10-22T06:50:20;15.10;99.90
44487;DHT22;30191;50.908;6.962;2022-10-22T06:52:46;15.10;99.90
44487;DHT22;30191;50.908;6.962;2022-10-22T06:55:11;15.10;99.90
44487;DHT22;30191;50.908;6.962;2022-10-22T06:57:37;15.10;99.90
44487;DHT22;30191;50.908;6.962;2022-10-22T07:00:05;15.20;99.90
44487;DHT22;30191;50.908;6.962;2022-10-22T07:02:31;15.20;99.90
44487;DHT22;30191;50.908;6.962;2022-10-22T07:04:57;15.20;99.90
44487;DHT22;30191;50.908;6.962;2022-10-22T07:07:22;15.30;99.90
44487;DHT22;30191;50.908;6.962;2022-10-22T07:09:48;15.30;99.90
44487;DHT22;30191;50.908;6.962;2022-10-22T07:12:15;15.30;99.90
44487;DHT22;30191;50.908;6.962;2022-10-22T07:14:40;15.20;99.90
44487;DHT22;30191;50.908;6.962;2022-10-22T07:17:06;15.20;99.90
44487;DHT22;30191;50.908;6.962;2022-10-22T07:19:32;15.20;99.90
44487;DHT22;30191;50.908;6.962;2022-10-22T07:21:58;15.20;99.90
44487;DHT22;30191;50.908;6.962;2022-10-22T07:24:24;15.20;99.90
44487;DHT22;30191;50.908;6.962;2022-10-22T07:26:49;15.20;99.90
44487;DHT22;30191;50.908;6.962;2022-10-22T07:29:15;15.20;99.90
44487;DHT22;30191;50.908;6.962;2022-10-22T07:31:41;15.20;99.90
44487;DHT22;30191;50.908;6.962;2022-10-22T07:34:08;15.30;99.90
44487;DHT22;30191;50.908;6.962;2022-10-22T07:36:34;15.30;99.90
44487;DHT22;30191;50.908;6.962;2022-10-22T07:39:00;15.30;99.90
44487;DHT22;30191;50.908;6.962;2022-10-22T07:41:27;15.30;99.90
44487;DHT22;30191;50.908;6.962;2022-10-22T07:43:54;15.40;99.90
44487;DHT22;30191;50.908;6.962;2022-10-22T07:46:20;15.40;99.90
44487;DHT22;30191;50.908;6.962;2022-10-22T07:48:46;15.50;99.90
44487;DHT22;30191;50.908;6.962;2022-10-22T07:51:12;15.50;99.90
44487;DHT22;30191;50.908;6.962;2022-10-22T07:53:37;15.50;99.90
44487;DHT22;30191;50.908;6.962;2022-10-22T07:56:03;15.60;99.90
44487;DHT22;30191;50.908;6.962;2022-10-22T07:58:29;15.70;99.90
44487;DHT22;30191;50.908;6.962;2022-10-22T08:00:56;15.70;99.90
44487;DHT22;30191;50.908;6.962;2022-10-22T08:03:22;15.80;99.90
44487;DHT22;30191;50.908;6.962;2022-10-22T08:05:48;15.80;99.90
44487;DHT22;30191;50.908;6.962;2022-10-22T08:08:14;15.80;99.90
44487;DHT22;30191;50.908;6.962;2022-10-22T08:10:41;15.90;99.90
44487;DHT22;30191;50.908;6.962;2022-10-22T08:13:07;16.00;99.90
44487;DHT22;30191;50.908;6.962;2022-10-22T08:15:33;16.00;99.90
44487;DHT22;30191;50.908;6.962;2022-10-22T08:17:59;16.10;99.90
44487;DHT22;30191;50.908;6.962;2022-10-22T08:20:24;16.10;99.90
44487;DHT22;30191;50.908;6.962;2022-10-22T08:22:50;16.20;99.90
44487;DHT22;30191;50.908;6.962;2022-10-22T08:25:16;16.20;99.90
44487;DHT22;30191;50.908;6.962;2022-10-22T08:27:43;16.20;99.90
44487;DHT22;30191;50.908;6.962;2022-10-22T08:30:09;16.20;99.90
44487;DHT22;30191;50.908;6.962;2022-10-22T08:32:35;16.30;99.90
44487;DHT22;30191;50.908;6.962;2022-10-22T08:35:00;16.30;99.90
44487;DHT22;30191;50.908;6.962;2022-10-22T08:37:26;16.30;99.90
44487;DHT22;30191;50.908;6.962;2022-10-22T08:39:52;16.30;99.90
44487;DHT22;30191;50.908;6.962;2022-10-22T08:49:52;16.40;99.90
44487;DHT22;30191;50.908;6.962;2022-10-22T08:52:19;16.50;99.90
44487;DHT22;30191;50.908;6.962;2022-10-22T09:00:29;16.60;99.90
44487;DHT22;30191;50.908;6.962;2022-10-22T09:08:18;16.60;99.90
44487;DHT22;30191;50.908;6.962;2022-10-22T09:10:55;16.70;99.90
44487;DHT22;30191;50.908;6.962;2022-10-22T09:13:23;16.70;99.90
44487;DHT22;30191;50.908;6.962;2022-10-22T09:16:00;16.70;99.90
44487;DHT22;30191;50.908;6.962;2022-10-22T09:24:10;16.80;99.90
44487;DHT22;30191;50.908;6.962;2022-10-22T09:26:38;16.80;99.90
44487;DHT22;30191;50.908;6.962;2022-10-22T09:29:05;16.80;99.90
44487;DHT22;30191;50.908;6.962;2022-10-22T09:31:32;16.80;99.90
44487;DHT22;30191;50.908;6.962;2022-10-22T09:33:58;16.80;99.90
44487;DHT22;30191;50.908;6.962;2022-10-22T09:36:27;16.80;99.90
44487;DHT22;30191;50.908;6.962;2022-10-22T09:38:53;16.80;99.90
44487;DHT22;30191;50.908;6.962;2022-10-22T09:41:24;16.80;99.90
44487;DHT22;30191;50.908;6.962;2022-10-22T09:43:50;16.80;99.90
44487;DHT22;30191;50.908;6.962;2022-10-22T09:46:22;16.80;99.90
44487;DHT22;30191;50.908;6.962;2022-10-22T09:49:05;16.80;99.90
44487;DHT22;30191;50.908;6.962;2022-10-22T09:51:57;16.80;99.90
44487;DHT22;30191;50.908;6.962;2022-10-22T09:57:04;16.80;99.90
44487;DHT22;30191;50.908;6.962;2022-10-22T09:59:33;16.90;99.90
44487;DHT22;30191;50.908;6.962;2022-10-22T10:02:14;16.90;99.90
44487;DHT22;30191;50.908;6.962;2022-10-22T10:04:52;16.90;99.90
44487;DHT22;30191;50.908;6.962;2022-10-22T10:09:46;16.90;99.90
44487;DHT22;30191;50.908;6.962;2022-10-22T10:12:56;16.90;99.90
44487;DHT22;30191;50.908;6.962;2022-10-22T10:15:49;16.90;99.90
44487;DHT22;30191;50.908;6.962;2022-10-22T10:18:33;16.90;99.90
44487;DHT22;30191;50.908;6.962;2022-10-22T10:35:12;17.10;99.90
44487;DHT22;30191;50.908;6.962;2022-10-22T10:37:45;17.10;99.90
44487;DHT22;30191;50.908;6.962;2022-10-22T10:40:31;17.20;99.90
44487;DHT22;30191;50.908;6.962;2022-10-22T10:43:26;17.20;99.90
44487;DHT22;30191;50.908;6.962;2022-10-22T10:56:57;17.30;99.90
44487;DHT22;30191;50.908;6.962;2022-10-22T11:07:56;17.30;99.90
44487;DHT22;30191;50.908;6.962;2022-10-22T11:10:48;17.40;99.90
44487;DHT22;30191;50.908;6.962;2022-10-22T11:13:27;17.30;99.90
44487;DHT22;30191;50.908;6.962;2022-10-22T11:18:59;17.40;99.90
44487;DHT22;30191;50.908;6.962;2022-10-22T11:24:44;17.40;99.90
44487;DHT22;30191;50.908;6.962;2022-10-22T11:27:06;17.40;99.90
44487;DHT22;30191;50.908;6.962;2022-10-22T11:29:42;17.40;99.90
44487;DHT22;30191;50.908;6.962;2022-10-22T11:32:28;17.40;99.90
44487;DHT22;30191;50.908;6.962;2022-10-22T11:34:57;17.30;99.90
44487;DHT22;30191;50.908;6.962;2022-10-22T11:37:25;17.40;99.90
44487;DHT22;30191;50.908;6.962;2022-10-22T11:39:57;17.40;99.90
44487;DHT22;30191;50.908;6.962;2022-10-22T11:42:36;17.30;99.90
44487;DHT22;30191;50.908;6.962;2022-10-22T11:53:25;17.30;99.90
44487;DHT22;30191;50.908;6.962;2022-10-22T11:55:54;17.20;99.90
44487;DHT22;30191;50.908;6.962;2022-10-22T12:00:55;17.20;99.90
44487;DHT22;30191;50.908;6.962;2022-10-22T12:16:55;17.30;99.90
44487;DHT22;30191;50.908;6.962;2022-10-22T12:21:51;17.40;99.90
44487;DHT22;30191;50.908;6.962;2022-10-22T12:24:20;17.40;99.90
44487;DHT22;30191;50.908;6.962;2022-10-22T12:26:47;17.40;99.90
44487;DHT22;30191;50.908;6.962;2022-10-22T12:29:18;17.40;99.90
44487;DHT22;30191;50.908;6.962;2022-10-22T12:31:45;17.50;99.90
44487;DHT22;30191;50.908;6.962;2022-10-22T12:34:17;17.50;99.90
44487;DHT22;30191;50.908;6.962;2022-10-22T12:36:43;17.70;99.90
44487;DHT22;30191;50.908;6.962;2022-10-22T12:39:14;17.90;99.90
44487;DHT22;30191;50.908;6.962;2022-10-22T12:41:40;18.00;99.90
44487;DHT22;30191;50.908;6.962;2022-10-22T12:44:09;18.20;99.90
44487;DHT22;30191;50.908;6.962;2022-10-22T12:46:35;18.40;99.90
44487;DHT22;30191;50.908;6.962;2022-10-22T12:49:05;18.60;99.90
44487;DHT22;30191;50.908;6.962;2022-10-22T12:51:32;18.80;99.90
44487;DHT22;30191;50.908;6.962;2022-10-22T12:54:14;19.00;99.90
44487;DHT22;30191;50.908;6.962;2022-10-22T12:56:42;19.20;99.90
44487;DHT22;30191;50.908;6.962;2022-10-22T12:59:19;19.30;99.90
44487;DHT22;30191;50.908;6.962;2022-10-22T13:01:47;19.50;99.90
44487;DHT22;30191;50.908;6.962;2022-10-22T13:06:50;19.70;99.90
44487;DHT22;30191;50.908;6.962;2022-10-22T13:09:20;19.50;99.90
44487;DHT22;30191;50.908;6.962;2022-10-22T13:14:24;19.40;99.90
44487;DHT22;30191;50.908;6.962;2022-10-22T13:24:58;19.70;99.90
44487;DHT22;30191;50.908;6.962;2022-10-22T13:27:26;19.50;99.90
44487;DHT22;30191;50.908;6.962;2022-10-22T13:29:53;19.40;99.90
44487;DHT22;30191;50.908;6.962;2022-10-22T13:32:31;19.20;99.90
44487;DHT22;30191;50.908;6.962;2022-10-22T13:34:59;19.10;99.90
44487;DHT22;30191;50.908;6.962;2022-10-22T13:37:27;19.00;99.90
44487;DHT22;30191;50.908;6.962;2022-10-22T13:39:54;19.10;99.90
44487;DHT22;30191;50.908;6.962;2022-10-22T13:42:19;19.90;99.90
44487;DHT22;30191;50.908;6.962;2022-10-22T13:44:45;21.80;99.90
44487;DHT22;30191;50.908;6.962;2022-10-22T13:47:24;23.00;99.90
44487;DHT22;30191;50.908;6.962;2022-10-22T13:49:51;23.10;99.90
44487;DHT22;30191;50.908;6.962;2022-10-22T13:52:30;22.60;99.90
44487;DHT22;30191;50.908;6.962;2022-10-22T13:54:58;22.00;99.90
44487;DHT22;30191;50.908;6.962;2022-10-22T13:57:24;21.50;99.90
44487;DHT22;30191;50.908;6.962;2022-10-22T13:59:49;20.90;99.90
44487;DHT22;30191;50.908;6.962;2022-10-22T14:02:15;20.50;99.90
44487;DHT22;30191;50.908;6.962;2022-10-22T14:04:42;20.20;99.90
44487;DHT22;30191;50.908;6.962;2022-10-22T14:07:17;20.00;99.90
44487;DHT22;30191;50.908;6.962;2022-10-22T14:09:43;20.70;99.90
44487;DHT22;30191;50.908;6.962;2022-10-22T14:12:13;21.60;99.90
44487;DHT22;30191;50.908;6.962;2022-10-22T14:14:39;22.50;99.90
44487;DHT22;30191;50.908;6.962;2022-10-22T14:17:12;22.40;99.90
44487;DHT22;30191;50.908;6.962;2022-10-22T14:19:45;21.80;99.90
44487;DHT22;30191;50.908;6.962;2022-10-22T14:22:15;21.10;99.90
44487;DHT22;30191;50.908;6.962;2022-10-22T14:24:41;20.70;99.90
44487;DHT22;30191;50.908;6.962;2022-10-22T14:27:11;20.30;99.90
44487;DHT22;30191;50.908;6.962;2022-10-22T14:29:38;20.00;99.90
44487;DHT22;30191;50.908;6.962;2022-10-22T14:32:12;19.70;99.90
44487;DHT22;30191;50.908;6.962;2022-10-22T14:34:39;19.50;99.90
44487;DHT22;30191;50.908;6.962;2022-10-22T14:37:08;19.40;99.90
44487;DHT22;30191;50.908;6.962;2022-10-22T14:39:37;19.30;99.90
44487;DHT22;30191;50.908;6.962;2022-10-22T14:42:04;19.20;99.90
44487;DHT22;30191;50.908;6.962;2022-10-22T14:44:29;19.50;99.90
44487;DHT22;30191;50.908;6.962;2022-10-22T14:46:55;19.80;99.90
44487;DHT22;30191;50.908;6.962;2022-10-22T14:49:20;19.90;99.90
44487;DHT22;30191;50.908;6.962;2022-10-22T14:51:46;19.90;99.90
44487;DHT22;30191;50.908;6.962;2022-10-22T14:54:12;19.90;99.90
44487;DHT22;30191;50.908;6.962;2022-10-22T14:56:37;19.70;99.90
44487;DHT22;30191;50.908;6.962;2022-10-22T14:59:03;19.70;99.90
44487;DHT22;30191;50.908;6.962;2022-10-22T15:01:29;19.70;99.90
44487;DHT22;30191;50.908;6.962;2022-10-22T15:03:54;19.80;99.90
44487;DHT22;30191;50.908;6.962;2022-10-22T15:06:20;19.80;99.90
44487;DHT22;30191;50.908;6.962;2022-10-22T15:08:46;19.80;99.90
44487;DHT22;30191;50.908;6.962;2022-10-22T15:11:12;19.90;99.90
44487;DHT22;30191;50.908;6.962;2022-10-22T15:13:38;19.90;99.90
44487;DHT22;30191;50.908;6.962;2022-10-22T15:16:07;20.00;99.90
44487;DHT22;30191;50.908;6.962;2022-10-22T15:18:33;20.10;99.90
44487;DHT22;30191;50.908;6.962;2022-10-22T15:21:05;20.20;99.90
44487;DHT22;30191;50.908;6.962;2022-10-22T15:23:31;20.20;99.90
44487;DHT22;30191;50.908;6.962;2022-10-22T15:25:57;20.20;99.90
44487;DHT22;30191;50.908;6.962;2022-10-22T15:28:23;20.20;99.90
44487;DHT22;30191;50.908;6.962;2022-10-22T15:30:56;20.10;99.90
44487;DHT22;30191;50.908;6.962;2022-10-22T15:33:23;20.00;99.90
44487;DHT22;30191;50.908;6.962;2022-10-22T15:35:49;19.80;99.90
44487;DHT22;30191;50.908;6.962;2022-10-22T15:38:15;19.60;99.90
44487;DHT22;30191;50.908;6.962;2022-10-22T15:40:41;19.50;99.90
44487;DHT22;30191;50.908;6.962;2022-10-22T15:43:06;19.30;99.90
44487;DHT22;30191;50.908;6.962;2022-10-22T15:45:32;19.20;99.90
44487;DHT22;30191;50.908;6.962;2022-10-22T15:47:58;19.10;99.90
44487;DHT22;30191;50.908;6.962;2022-10-22T15:50:23;18.90;99.90
44487;DHT22;30191;50.908;6.962;2022-10-22T15:52:49;18.90;99.90
44487;DHT22;30191;50.908;6.962;2022-10-22T15:55:15;18.80;99.90
44487;DHT22;30191;50.908;6.962;2022-10-22T15:57:40;18.80;99.90
44487;DHT22;30191;50.908;6.962;2022-10-22T16:00:06;18.70;99.90
44487;DHT22;30191;50.908;6.962;2022-10-22T16:02:32;18.60;99.90
44487;DHT22;30191;50.908;6.962;2022-10-22T16:04:58;18.50;99.90
44487;DHT22;30191;50.908;6.962;2022-10-22T16:07:25;18.50;99.90
44487;DHT22;30191;50.908;6.962;2022-10-22T16:09:57;18.40;99.90
44487;DHT22;30191;50.908;6.962;2022-10-22T16:12:24;18.30;99.90
44487;DHT22;30191;50.908;6.962;2022-10-22T16:14:50;18.40;99.90
44487;DHT22;30191;50.908;6.962;2022-10-22T16:17:16;18.30;99.90
44487;DHT22;30191;50.908;6.962;2022-10-22T16:19:42;18.30;99.90
44487;DHT22;30191;50.908;6.962;2022-10-22T16:22:08;18.20;99.90
44487;DHT22;30191;50.908;6.962;2022-10-22T16:24:36;18.20;99.90
44487;DHT22;30191;50.908;6.962;2022-10-22T16:27:05;18.10;99.90
44487;DHT22;30191;50.908;6.962;2022-10-22T16:29:31;18.10;99.90
44487;DHT22;30191;50.908;6.962;2022-10-22T16:31:56;18.10;99.90
44487;DHT22;30191;50.908;6.962;2022-10-22T16:34:22;18.00;99.90
44487;DHT22;30191;50.908;6.962;2022-10-22T16:36:50;18.00;99.90
44487;DHT22;30191;50.908;6.962;2022-10-22T16:39:17;17.90;99.90
44487;DHT22;30191;50.908;6.962;2022-10-22T16:41:43;17.80;99.90
44487;DHT22;30191;50.908;6.962;2022-10-22T16:44:09;17.80;99.90
44487;DHT22;30191;50.908;6.962;2022-10-22T16:46:35;17.80;99.90
44487;DHT22;30191;50.908;6.962;2022-10-22T16:49:03;17.70;99.90
44487;DHT22;30191;50.908;6.962;2022-10-22T16:51:29;17.70;99.90
44487;DHT22;30191;50.908;6.962;2022-10-22T16:53:56;17.60;99.90
44487;DHT22;30191;50.908;6.962;2022-10-22T16:56:23;17.60;99.90
44487;DHT22;30191;50.908;6.962;2022-10-22T16:58:50;17.60;99.90
44487;DHT22;30191;50.908;6.962;2022-10-22T17:01:18;17.60;99.90
44487;DHT22;30191;50.908;6.962;2022-10-22T17:03:45;17.60;99.90
44487;DHT22;30191;50.908;6.962;2022-10-22T17:06:11;17.60;99.90
44487;DHT22;30191;50.908;6.962;2022-10-22T17:08:38;17.50;99.90
44487;DHT22;30191;50.908;6.962;2022-10-22T17:11:07;17.50;99.90
44487;DHT22;30191;50.908;6.962;2022-10-22T17:13:33;17.50;99.90
44487;DHT22;30191;50.908;6.962;2022-10-22T17:16:06;17.50;99.90
44487;DHT22;30191;50.908;6.962;2022-10-22T17:18:34;17.50;99.90
44487;DHT22;30191;50.908;6.962;2022-10-22T17:20:59;17.50;99.90
44487;DHT22;30191;50.908;6.962;2022-10-22T17:23:25;17.50;99.90
44487;DHT22;30191;50.908;6.962;2022-10-22T17:26:07;17.50;99.90
44487;DHT22;30191;50.908;6.962;2022-10-22T17:28:41;17.40;99.90
44487;DHT22;30191;50.908;6.962;2022-10-22T17:31:31;17.40;99.90
44487;DHT22;30191;50.908;6.962;2022-10-22T17:33:57;17.40;99.90
44487;DHT22;30191;50.908;6.962;2022-10-22T17:36:25;17.30;99.90
44487;DHT22;30191;50.908;6.962;2022-10-22T17:38:53;17.30;99.90
44487;DHT22;30191;50.908;6.962;2022-10-22T17:41:27;17.30;99.90
44487;DHT22;30191;50.908;6.962;2022-10-22T17:43:54;17.20;99.90
44487;DHT22;30191;50.908;6.962;2022-10-22T17:46:25;17.20;99.90
44487;DHT22;30191;50.908;6.962;2022-10-22T17:49:06;17.10;99.90
44487;DHT22;30191;50.908;6.962;2022-10-22T17:51:32;17.10;99.90
44487;DHT22;30191;50.908;6.962;2022-10-22T17:53:58;17.00;99.90
44487;DHT22;30191;50.908;6.962;2022-10-22T17:56:26;17.00;99.90
44487;DHT22;30191;50.908;6.962;2022-10-22T17:58:52;17.00;99.90
44487;DHT22;30191;50.908;6.962;2022-10-22T18:01:30;17.00;99.90